Time;durP1;ratioP1;P1;durP2;ratioP2;P2;SDS_P1;SDS_P2;PMS_P1;PMS_P2;Temp;Humidity;BMP_temperature;BMP_pressure;BME280_temperature;BME280_humidity;BME280_pressure;Samples;Min_cycle;Max_cycle;Signal;HPM_P1;HPM_P2
2021/09/02 00:01:06;;;;;;;;;19.67;13.67;;;;;18.03;53.92;102173.53;5131018;27;45257;-91
2021/09/02 00:03:31;;;;;;;;;14.33;13.67;;;;;18.07;54.25;102198.38;5097963;27;45390;-90
2021/09/02 00:05:57;;;;;;;;;15.00;13.00;;;;;18.02;54.32;102194.81;5100369;27;46975;-90
2021/09/02 00:08:25;;;;;;;;;16.00;15.00;;;;;18.15;54.39;102214.41;5099838;27;44826;-90
2021/09/02 00:10:51;;;;;;;;;16.00;14.67;;;;;18.14;54.46;102218.88;5120069;27;44676;-91
2021/09/02 00:13:16;;;;;;;;;15.67;15.00;;;;;17.97;54.22;102188.53;5122993;27;44800;-91
2021/09/02 00:15:42;;;;;;;;;14.67;13.67;;;;;17.94;54.08;102192.06;5106315;27;47150;-91
2021/09/02 00:18:08;;;;;;;;;15.00;15.00;;;;;17.95;54.45;102191.19;5124097;27;44751;-91
2021/09/02 00:20:34;;;;;;;;;18.33;14.67;;;;;18.04;54.77;102206.34;5139810;27;45182;-92
2021/09/02 00:23:00;;;;;;;;;16.67;15.33;;;;;17.87;54.63;102179.59;5125165;27;44797;-92
2021/09/02 00:25:25;;;;;;;;;13.00;13.00;;;;;17.90;54.65;102183.16;5106851;27;46849;-91
2021/09/02 00:27:51;;;;;;;;;17.33;14.33;;;;;17.85;54.42;102174.25;5106985;27;44767;-91
2021/09/02 00:30:16;;;;;;;;;15.67;14.33;;;;;17.82;54.43;102168.88;5107297;27;45474;-90
2021/09/02 00:32:42;;;;;;;;;15.67;13.33;;;;;17.78;54.52;102161.75;5107802;27;44836;-90
2021/09/02 00:35:08;;;;;;;;;17.33;15.67;;;;;17.93;54.74;102190.28;5126214;27;45313;-91
2021/09/02 00:37:33;;;;;;;;;17.33;16.67;;;;;17.79;54.96;102172.41;5109901;27;44812;-91
2021/09/02 00:39:59;;;;;;;;;17.67;15.33;;;;;17.75;54.80;102159.94;5110529;27;45416;-91
2021/09/02 00:42:24;;;;;;;;;15.33;12.67;;;;;17.86;54.73;102177.78;5124857;27;44723;-91
2021/09/02 00:44:50;;;;;;;;;17.00;14.00;;;;;17.77;54.88;102170.59;5143552;27;47266;-91
2021/09/02 00:47:16;;;;;;;;;23.33;16.67;;;;;17.80;54.54;102182.19;5126236;27;45147;-91
2021/09/02 00:49:43;;;;;;;;;21.00;16.33;;;;;17.77;54.87;102181.22;5126474;27;44649;-90
2021/09/02 00:52:19;;;;;;;;;15.00;14.00;;;;;17.76;55.02;102190.09;5124552;27;45290;-91
2021/09/02 00:54:46;;;;;;;;;18.00;15.00;;;;;17.58;55.06;102159.75;5108976;27;47370;-90
2021/09/02 00:57:15;;;;;;;;;16.00;13.00;;;;;17.61;55.09;102169.56;5111548;27;44834;-90
2021/09/02 00:59:40;;;;;;;;;16.67;13.33;;;;;17.50;55.14;102151.72;5112299;27;44718;-90
2021/09/02 01:02:07;;;;;;;;;16.67;15.00;;;;;17.51;55.17;102157.94;5112853;27;44853;-91
2021/09/02 01:04:33;;;;;;;;;17.33;14.00;;;;;17.47;55.30;102155.22;5130167;27;45390;-89
2021/09/02 01:06:59;;;;;;;;;18.67;17.00;;;;;17.57;55.34;102172.19;5123844;27;45223;-89
2021/09/02 01:09:31;;;;;;;;;14.00;13.33;;;;;17.58;55.32;102178.38;5097988;27;44863;-91
2021/09/02 01:11:56;;;;;;;;;17.67;15.67;;;;;17.60;55.13;102187.25;5127224;27;44646;-91
2021/09/02 01:14:21;;;;;;;;;17.33;16.33;;;;;17.49;55.22;102171.22;5126020;27;45119;-92
2021/09/02 01:16:52;;;;;;;;;19.00;16.00;;;;;17.41;55.43;102165.78;5106739;27;45192;-90
2021/09/02 01:19:19;;;;;;;;;20.00;13.67;;;;;17.50;55.60;102177.41;5111588;27;44751;-91
2021/09/02 01:21:45;;;;;;;;;15.67;14.00;;;;;17.43;55.58;102173.81;5127438;27;44741;-91
2021/09/02 01:24:10;;;;;;;;;14.67;14.67;;;;;17.37;55.57;102156.00;5143085;27;46750;-90
2021/09/02 01:26:36;;;;;;;;;20.67;20.00;;;;;17.45;55.48;102169.41;5109683;27;45314;-90
2021/09/02 01:29:02;;;;;;;;;19.00;18.00;;;;;17.38;55.83;102159.53;5114170;27;45318;-90
2021/09/02 01:31:27;;;;;;;;;14.33;12.00;;;;;17.43;55.83;102165.81;5102645;27;45211;-90
2021/09/02 01:33:53;;;;;;;;;17.67;15.33;;;;;17.34;56.01;102143.56;5083533;27;48265;-90
2021/09/02 01:36:18;;;;;;;;;17.67;15.33;;;;;17.32;55.91;102141.78;5083853;27;45410;-91
2021/09/02 01:38:44;;;;;;;;;21.00;19.00;;;;;17.29;55.99;102136.41;5083464;27;45310;-90
2021/09/02 01:41:10;;;;;;;;;17.00;15.67;;;;;17.42;55.86;102154.28;5083475;27;45420;-90
2021/09/02 01:43:36;;;;;;;;;19.00;16.00;;;;;17.30;55.62;102138.19;5083164;27;46911;-91
2021/09/02 01:46:01;;;;;;;;;17.00;16.00;;;;;17.41;55.98;102155.16;5083002;27;45403;-90
2021/09/02 01:48:37;;;;;;;;;18.67;15.33;;;;;17.37;55.95;102145.34;5082834;27;45462;-92
2021/09/02 01:51:03;;;;;;;;;16.67;16.00;;;;;17.31;56.25;102142.63;5083474;27;45476;-90
2021/09/02 01:53:29;;;;;;;;;18.00;17.00;;;;;17.33;56.09;102149.75;5110999;27;45499;-90
2021/09/02 01:55:55;;;;;;;;;16.67;14.00;;;;;17.23;56.07;102139.88;5098742;27;45451;-90
2021/09/02 01:58:20;;;;;;;;;13.67;12.00;;;;;17.30;56.14;102157.69;5115223;27;45260;-90
2021/09/02 02:00:48;;;;;;;;;18.67;16.67;;;;;17.26;55.95;102153.19;5105574;27;45675;-91
2021/09/02 02:03:13;;;;;;;;;18.67;15.67;;;;;17.24;56.01;102150.53;5118487;27;48233;-90
2021/09/02 02:05:39;;;;;;;;;21.33;16.00;;;;;17.18;56.07;102144.25;5083624;27;45358;-90
2021/09/02 02:08:05;;;;;;;;;16.33;15.00;;;;;17.13;56.12;102142.41;5102668;27;45323;-92
2021/09/02 02:10:31;;;;;;;;;19.00;16.33;;;;;17.07;56.09;102134.34;5100274;27;45536;-90
2021/09/02 02:13:02;;;;;;;;;19.33;17.67;;;;;17.04;56.58;102126.34;5099646;27;47311;-91
2021/09/02 02:15:28;;;;;;;;;21.67;17.67;;;;;17.17;56.32;102150.44;5101423;27;45590;-91
2021/09/02 02:17:54;;;;;;;;;17.67;14.00;;;;;16.95;56.80;102116.50;5101220;27;45309;-91
2021/09/02 02:20:20;;;;;;;;;18.67;14.67;;;;;16.96;56.66;102117.38;5101284;27;45668;-91
2021/09/02 02:22:46;;;;;;;;;16.00;13.33;;;;;17.04;56.69;102125.44;5083808;27;47318;-91
2021/09/02 02:25:14;;;;;;;;;22.67;16.67;;;;;16.93;56.72;102106.72;5083526;27;45361;-90
2021/09/02 02:27:41;;;;;;;;;19.00;17.00;;;;;16.95;56.50;102115.59;5100594;27;45418;-90
2021/09/02 02:30:14;;;;;;;;;21.33;17.67;;;;;16.95;56.84;102115.59;5101224;27;45357;-90
2021/09/02 02:32:39;;;;;;;;;22.00;17.67;;;;;16.96;56.61;102128.00;5085724;27;48234;-90
2021/09/02 02:35:05;;;;;;;;;21.33;17.00;;;;;16.94;56.89;102130.63;5103794;27;45405;-90
2021/09/02 02:37:31;;;;;;;;;21.67;16.33;;;;;16.95;56.69;102129.75;5099749;27;45261;-90
2021/09/02 02:39:56;;;;;;;;;19.50;17.50;;;;;16.90;56.73;102123.47;5116852;27;45357;-90
2021/09/02 02:42:22;;;;;;;;;25.67;21.00;;;;;16.78;57.05;102108.28;5110024;27;45436;-91
2021/09/02 02:44:47;;;;;;;;;19.00;17.33;;;;;16.80;56.93;102109.19;5101557;27;45306;-90
2021/09/02 02:47:13;;;;;;;;;19.00;18.00;;;;;16.73;56.89;102097.59;5084238;27;45454;-90
2021/09/02 02:49:40;;;;;;;;;22.00;18.00;;;;;16.68;57.13;102088.69;5086590;27;45589;-91
2021/09/02 02:52:07;;;;;;;;;21.33;18.67;;;;;16.84;56.92;102123.41;5085749;27;47087;-91
2021/09/02 02:54:32;;;;;;;;;24.67;18.67;;;;;16.74;57.07;102118.00;5099731;27;45962;-90
2021/09/02 02:56:58;;;;;;;;;18.67;17.67;;;;;16.70;57.29;102112.59;5100793;27;45441;-89
2021/09/02 02:59:23;;;;;;;;;23.50;20.25;;;;;16.72;57.25;102119.72;5082517;27;45544;-90
2021/09/02 03:01:49;;;;;;;;;15.75;15.25;;;;;16.61;57.20;102089.47;5101246;27;46072;-90
2021/09/02 03:04:15;;;;;;;;;20.00;18.33;;;;;16.63;57.62;102090.38;5101493;27;45422;-90
2021/09/02 03:06:40;;;;;;;;;17.00;15.67;;;;;16.75;57.40;102102.94;5115854;27;44708;-89
2021/09/02 03:09:06;;;;;;;;;21.33;15.67;;;;;16.54;57.54;102077.91;5118021;27;44657;-90
2021/09/02 03:11:31;;;;;;;;;26.67;18.00;;;;;16.67;57.71;102097.50;5105445;27;47328;-90
2021/09/02 03:13:57;;;;;;;;;19.67;18.00;;;;;16.63;57.57;102099.25;5097536;27;45312;-91
2021/09/02 03:16:23;;;;;;;;;16.67;16.00;;;;;16.59;57.68;102093.88;5100462;27;45412;-91
2021/09/02 03:18:48;;;;;;;;;23.25;16.50;;;;;16.48;57.90;102085.75;5101062;27;45301;-90
2021/09/02 03:21:14;;;;;;;;;16.00;15.33;;;;;16.62;57.46;102108.09;5080991;27;46144;-91
2021/09/02 03:23:40;;;;;;;;;17.33;16.00;;;;;16.62;57.98;102109.84;5098202;27;45442;-90
2021/09/02 03:26:06;;;;;;;;;25.33;23.00;;;;;16.55;57.40;102099.16;5101144;27;45460;-91
2021/09/02 03:28:31;;;;;;;;;24.33;20.00;;;;;16.49;57.64;102092.84;5083212;27;45449;-90
2021/09/02 03:30:57;;;;;;;;;23.33;19.33;;;;;16.53;57.73;102090.25;5098588;27;48078;-91
2021/09/02 03:33:22;;;;;;;;;21.67;18.67;;;;;16.50;57.56;102084.00;5082072;27;45467;-90
2021/09/02 03:35:48;;;;;;;;;24.00;19.00;;;;;16.59;57.81;102102.72;5101235;27;45398;-91
2021/09/02 03:38:13;;;;;;;;;21.33;19.33;;;;;16.49;57.99;102091.09;5082315;27;45515;-90
2021/09/02 03:40:39;;;;;;;;;20.67;18.33;;;;;16.57;57.99;102092.94;5081538;27;47264;-90
2021/09/02 03:43:07;;;;;;;;;23.75;18.25;;;;;16.45;58.10;102068.03;5098135;27;45476;-91
2021/09/02 03:45:32;;;;;;;;;19.00;19.00;;;;;16.41;58.01;102061.75;5105895;27;45310;-90
2021/09/02 03:47:58;;;;;;;;;26.00;18.25;;;;;16.54;57.86;102084.06;5089573;27;45572;-92
2021/09/02 03:50:24;;;;;;;;;16.67;16.33;;;;;16.50;58.27;102082.25;5095623;27;46244;-90
2021/09/02 03:52:49;;;;;;;;;22.00;17.00;;;;;16.39;58.13;102057.31;5109958;27;45275;-89
2021/09/02 03:55:15;;;;;;;;;22.75;19.25;;;;;16.49;57.94;102077.81;5099058;27;45344;-91
2021/09/02 03:57:41;;;;;;;;;23.50;19.50;;;;;16.32;58.07;102056.34;5124624;27;45456;-90
2021/09/02 04:00:10;;;;;;;;;25.50;20.50;;;;;16.39;57.86;102067.94;5093895;27;47173;-89
2021/09/02 04:02:36;;;;;;;;;23.75;23.50;;;;;16.39;57.79;102070.59;5111323;27;45350;-90
2021/09/02 04:05:04;;;;;;;;;21.75;19.50;;;;;16.26;57.96;102049.19;5102974;27;45321;-91
2021/09/02 04:07:29;;;;;;;;;20.50;18.75;;;;;16.30;58.23;102066.94;5100452;27;45273;-91
2021/09/02 04:09:55;;;;;;;;;20.00;19.00;;;;;16.28;58.19;102073.09;5081136;27;47471;-90
2021/09/02 04:12:20;;;;;;;;;18.25;15.25;;;;;16.28;58.25;102081.94;5098843;27;45226;-90
2021/09/02 04:14:46;;;;;;;;;23.25;18.50;;;;;16.19;58.28;102073.81;5097310;27;45418;-90
2021/09/02 04:17:11;;;;;;;;;24.25;20.00;;;;;16.15;58.53;102072.00;5080894;27;45492;-89
2021/09/02 04:19:37;;;;;;;;;23.00;20.33;;;;;16.22;58.51;102089.81;5080231;27;47842;-90
2021/09/02 04:22:03;;;;;;;;;28.75;22.25;;;;;16.20;58.31;102092.41;5080303;27;45390;-90
2021/09/02 04:24:28;;;;;;;;;22.67;17.00;;;;;16.08;58.25;102063.94;5097643;27;45488;-90
2021/09/02 04:26:54;;;;;;;;;25.00;21.33;;;;;16.21;58.40;102093.31;5081090;27;45533;-89
2021/09/02 04:29:21;;;;;;;;;22.33;21.33;;;;;16.19;58.31;102093.31;5097220;27;46931;-89
2021/09/02 04:31:47;;;;;;;;;22.00;19.00;;;;;16.07;58.52;102072.78;5099074;27;45434;-91
2021/09/02 04:34:12;;;;;;;;;23.00;19.25;;;;;16.01;58.57;102072.63;5099683;27;45439;-89
2021/09/02 04:36:41;;;;;;;;;22.00;19.00;;;;;16.14;58.54;102088.81;5098012;27;45403;-90
2021/09/02 04:39:07;;;;;;;;;24.67;19.33;;;;;16.06;58.83;102086.91;5098846;27;45503;-92
2021/09/02 04:41:33;;;;;;;;;26.67;22.33;;;;;16.03;59.00;102080.66;5080091;27;45358;-89
2021/09/02 04:43:59;;;;;;;;;23.33;22.33;;;;;15.89;59.15;102061.81;5079920;27;45468;-91
2021/09/02 04:46:25;;;;;;;;;22.00;20.00;;;;;15.99;58.93;102092.91;5099267;27;45512;-89
2021/09/02 04:48:50;;;;;;;;;24.33;21.00;;;;;16.03;59.01;102094.78;5084935;27;46377;-90
2021/09/02 04:51:16;;;;;;;;;19.00;19.00;;;;;16.01;58.84;102103.59;5103266;27;45429;-90
2021/09/02 04:53:45;;;;;;;;;22.33;21.00;;;;;15.94;59.01;102079.63;5100009;27;45315;-90
2021/09/02 04:56:11;;;;;;;;;26.75;20.50;;;;;15.94;59.15;102084.00;5099103;27;45444;-90
2021/09/02 04:58:37;;;;;;;;;22.50;22.50;;;;;15.91;59.16;102073.34;5079511;27;46936;-90
2021/09/02 05:01:03;;;;;;;;;25.25;21.75;;;;;15.93;59.21;102087.50;5079545;27;46062;-91
2021/09/02 05:03:28;;;;;;;;;27.25;23.00;;;;;15.97;59.22;102098.22;5080079;27;45476;-91
2021/09/02 05:05:54;;;;;;;;;28.75;24.50;;;;;15.80;59.20;102068.75;5080030;27;45473;-90
2021/09/02 05:08:21;;;;;;;;;25.75;21.75;;;;;15.82;59.23;102072.31;5080384;27;48009;-90
2021/09/02 05:10:47;;;;;;;;;26.25;22.25;;;;;15.90;59.19;102071.56;5079772;27;45330;-92
2021/09/02 05:13:13;;;;;;;;;29.25;22.75;;;;;15.93;59.40;102075.16;5079893;27;45401;-91
2021/09/02 05:15:38;;;;;;;;;22.25;20.50;;;;;15.85;59.26;102064.44;5079779;27;45263;-89
2021/09/02 05:18:04;;;;;;;;;31.00;21.75;;;;;15.91;58.95;102074.25;5079577;27;47366;-88
2021/09/02 05:20:29;;;;;;;;;25.00;22.75;;;;;15.85;59.59;102063.53;5080378;27;45935;-90
2021/09/02 05:22:55;;;;;;;;;22.75;21.00;;;;;15.90;59.22;102079.53;5082152;27;45264;-90
2021/09/02 05:25:20;;;;;;;;;22.25;20.25;;;;;15.81;59.40;102067.00;5084980;27;44822;-90
2021/09/02 05:27:46;;;;;;;;;24.00;19.50;;;;;15.95;59.14;102091.09;5091748;27;47127;-90
2021/09/02 05:30:13;;;;;;;;;24.25;19.75;;;;;15.89;58.84;102083.03;5090768;27;45412;-90
2021/09/02 05:32:38;;;;;;;;;26.00;22.50;;;;;15.86;59.63;102067.97;5083790;27;45488;-90
2021/09/02 05:35:05;;;;;;;;;25.75;22.00;;;;;15.93;59.33;102079.56;5083924;27;45569;-90
2021/09/02 05:37:31;;;;;;;;;28.00;22.75;;;;;15.83;59.38;102066.16;5083380;27;48294;-92
2021/09/02 05:39:56;;;;;;;;;30.50;26.50;;;;;15.83;59.05;102067.91;5117557;27;45819;-92
2021/09/02 05:42:29;;;;;;;;;26.50;20.00;;;;;15.87;59.17;102077.72;5083174;27;45342;-91
2021/09/02 05:44:54;;;;;;;;;26.25;23.00;;;;;15.82;59.14;102060.84;5083671;27;45541;-91
2021/09/02 05:47:20;;;;;;;;;24.25;20.75;;;;;15.73;59.59;102061.56;5082829;27;47033;-90
2021/09/02 05:49:45;;;;;;;;;28.25;25.00;;;;;15.74;59.27;102066.00;5100374;27;45416;-91
2021/09/02 05:52:11;;;;;;;;;22.25;20.00;;;;;15.76;59.43;102063.41;5100340;27;45440;-93
2021/09/02 05:54:36;;;;;;;;;33.25;25.25;;;;;15.70;59.39;102057.09;5102054;27;45239;-91
2021/09/02 05:57:02;;;;;;;;;32.25;22.75;;;;;15.87;59.43;102088.31;5101362;27;46071;-91
2021/09/02 05:59:27;;;;;;;;;22.25;22.25;;;;;15.72;59.24;102070.38;5083833;27;45549;-91
2021/09/02 06:01:53;;;;;;;;;28.25;26.25;;;;;15.72;59.61;102054.47;5127243;27;44894;-91
2021/09/02 06:04:18;;;;;;;;;32.25;27.75;;;;;15.76;59.13;102063.41;5096482;27;45276;-90
2021/09/02 06:06:44;;;;;;;;;24.00;22.00;;;;;15.92;59.53;102083.09;5095366;27;46771;-90
2021/09/02 06:09:09;;;;;;;;;25.00;23.00;;;;;15.75;59.46;102057.19;5086228;27;45390;-92
2021/09/02 06:11:38;;;;;;;;;39.75;25.00;;;;;15.85;59.26;102083.00;5083517;27;45320;-91
2021/09/02 06:14:03;;;;;;;;;26.50;21.25;;;;;15.83;59.51;102092.69;5084320;27;45331;-90
2021/09/02 06:16:34;;;;;;;;;30.00;27.25;;;;;15.68;59.55;102069.44;5101579;27;46418;-90
2021/09/02 06:18:59;;;;;;;;;29.75;24.50;;;;;15.73;59.40;102073.06;5099915;27;45478;-92
2021/09/02 06:21:25;;;;;;;;;27.75;25.75;;;;;15.76;59.31;102072.22;5100475;27;45199;-92
2021/09/02 06:23:50;;;;;;;;;29.25;26.50;;;;;15.81;59.28;102083.81;5083369;27;45610;-91
2021/09/02 06:26:16;;;;;;;;;25.75;20.75;;;;;15.73;59.40;102066.88;5083492;27;47173;-92
2021/09/02 06:28:41;;;;;;;;;26.25;23.25;;;;;15.84;59.21;102086.50;5083241;27;45828;-91
2021/09/02 06:31:07;;;;;;;;;31.00;25.25;;;;;15.92;59.73;102101.66;5099930;27;45440;-91
2021/09/02 06:33:34;;;;;;;;;28.00;26.50;;;;;15.85;59.10;102085.66;5082876;27;45365;-92
2021/09/02 06:36:00;;;;;;;;;28.25;24.25;;;;;15.78;59.57;102075.78;5083074;27;47171;-90
2021/09/02 06:38:25;;;;;;;;;30.75;27.00;;;;;15.90;59.80;102088.38;5117857;27;45713;-91
2021/09/02 06:40:50;;;;;;;;;31.25;27.50;;;;;15.82;59.21;102072.31;5083020;27;45214;-91
2021/09/02 06:43:16;;;;;;;;;34.00;29.75;;;;;15.93;59.86;102090.16;5108553;27;45233;-90
2021/09/02 06:45:41;;;;;;;;;33.75;28.00;;;;;15.81;59.60;102065.25;5099183;27;46946;-90
2021/09/02 06:48:07;;;;;;;;;33.75;27.00;;;;;15.97;59.85;102095.56;5112416;27;45716;-92
2021/09/02 06:50:33;;;;;;;;;26.50;23.50;;;;;16.06;59.34;102097.50;5094751;27;45471;-90
2021/09/02 06:52:58;;;;;;;;;28.25;24.25;;;;;15.95;59.59;102073.44;5095699;27;45283;-90
2021/09/02 06:55:25;;;;;;;;;27.00;24.25;;;;;15.92;59.48;102062.78;5130054;27;47406;-91
2021/09/02 06:57:51;;;;;;;;;32.75;26.50;;;;;16.13;59.62;102105.56;5130964;27;45223;-89
2021/09/02 07:00:17;;;;;;;;;34.50;28.75;;;;;16.12;59.20;102098.50;5097127;27;45305;-91
2021/09/02 07:02:46;;;;;;;;;39.75;32.50;;;;;16.12;59.32;102094.06;5097455;27;45785;-91
2021/09/02 07:05:11;;;;;;;;;29.25;27.50;;;;;16.21;59.26;102103.94;5087891;27;47729;-91
2021/09/02 07:07:37;;;;;;;;;35.50;27.50;;;;;16.07;59.49;102075.44;5095381;27;45657;-91
2021/09/02 07:10:04;;;;;;;;;29.25;26.75;;;;;16.14;59.46;102068.44;5117762;27;45314;-91
2021/09/02 07:12:30;;;;;;;;;33.75;28.00;;;;;16.16;59.18;102072.00;5099562;27;44804;-89
2021/09/02 07:14:58;;;;;;;;;32.25;29.00;;;;;16.30;58.99;102098.78;5117198;27;46886;-90
2021/09/02 07:17:23;;;;;;;;;33.00;26.25;;;;;16.16;58.79;102065.84;5114478;27;45417;-88
2021/09/02 07:19:49;;;;;;;;;29.75;25.00;;;;;16.27;58.96;102084.56;5112366;27;45392;-88
2021/09/02 07:22:14;;;;;;;;;26.25;23.25;;;;;16.26;59.41;102080.13;5095112;27;45336;-88
2021/09/02 07:24:40;;;;;;;;;32.25;28.75;;;;;16.40;59.14;102097.16;5111218;27;45303;-87
2021/09/02 07:27:05;;;;;;;;;35.00;29.00;;;;;16.47;59.32;102114.06;5108561;27;45333;-83
2021/09/02 07:29:31;;;;;;;;;36.25;27.50;;;;;16.46;59.18;102101.66;5105302;27;45335;-82
2021/09/02 07:31:57;;;;;;;;;29.25;29.25;;;;;16.58;59.47;102113.34;5104050;27;45326;-83
2021/09/02 07:34:22;;;;;;;;;37.00;32.00;;;;;16.63;60.63;102112.53;5096498;27;47082;-89
2021/09/02 07:36:48;;;;;;;;;28.50;27.50;;;;;16.62;60.16;102101.88;5112460;27;44853;-89
2021/09/02 07:39:14;;;;;;;;;30.50;26.25;;;;;16.72;59.73;102108.22;5112920;27;45313;-87
2021/09/02 07:41:41;;;;;;;;;27.25;25.25;;;;;16.66;59.15;102094.00;5115971;27;44734;-89
2021/09/02 07:44:07;;;;;;;;;36.50;30.75;;;;;16.66;59.80;102095.75;5124420;27;48132;-88
2021/09/02 07:46:33;;;;;;;;;30.75;26.25;;;;;16.78;59.78;102106.53;5123763;27;44767;-89
2021/09/02 07:48:58;;;;;;;;;35.75;29.25;;;;;16.75;59.31;102084.38;5124806;27;45546;-89
2021/09/02 07:51:24;;;;;;;;;35.50;30.00;;;;;16.85;59.18;102088.91;5126506;27;44795;-89
2021/09/02 07:53:49;;;;;;;;;34.50;28.75;;;;;16.87;59.11;102086.28;5124724;27;45653;-88
2021/09/02 07:56:15;;;;;;;;;36.75;31.00;;;;;16.87;59.15;102078.31;5107956;27;45340;-89
2021/09/02 07:58:42;;;;;;;;;36.25;29.50;;;;;16.95;59.17;102087.25;5108677;27;44768;-86
2021/09/02 08:01:11;;;;;;;;;36.00;26.50;;;;;17.03;59.44;102092.66;5127187;27;44713;-89
2021/09/02 08:03:40;;;;;;;;;34.00;27.75;;;;;17.05;58.89;102096.22;5108573;27;47485;-89
2021/09/02 08:06:07;;;;;;;;;31.75;29.25;;;;;16.95;59.12;102063.34;5113718;27;45235;-89
2021/09/02 08:08:33;;;;;;;;;32.50;27.75;;;;;17.04;58.44;102069.66;5093278;27;45272;-87
2021/09/02 08:10:59;;;;;;;;;33.00;28.50;;;;;17.14;59.28;102087.53;5114998;27;44605;-87
2021/09/02 08:13:25;;;;;;;;;29.50;27.25;;;;;17.18;59.11;102092.00;5113108;27;45400;-88
2021/09/02 08:15:50;;;;;;;;;31.25;27.50;;;;;17.15;58.98;102073.38;5117284;27;45270;-87
2021/09/02 08:18:16;;;;;;;;;34.00;28.00;;;;;17.17;59.21;102065.41;5119661;27;44747;-87
2021/09/02 08:20:41;;;;;;;;;32.00;27.50;;;;;17.35;58.52;102088.63;5118564;27;44809;-88
2021/09/02 08:23:08;;;;;;;;;41.00;29.75;;;;;17.33;58.92;102078.00;5083062;27;47064;-89
2021/09/02 08:25:33;;;;;;;;;31.00;27.50;;;;;17.43;58.24;102081.63;5101402;27;45476;-89
2021/09/02 08:27:59;;;;;;;;;31.50;26.75;;;;;17.46;58.87;102081.69;5100968;27;45378;-88
2021/09/02 08:30:26;;;;;;;;;35.50;28.00;;;;;17.41;58.92;102063.91;5103787;27;45298;-89
2021/09/02 08:32:52;;;;;;;;;33.00;27.25;;;;;17.48;58.34;102063.97;5100438;27;45334;-89
2021/09/02 08:35:26;;;;;;;;;30.75;27.00;;;;;17.50;58.09;102049.78;5099367;27;46013;-89
2021/09/02 08:37:57;;;;;;;;;32.50;29.75;;;;;17.58;58.44;102053.41;5084635;27;45460;-89
2021/09/02 08:40:27;;;;;;;;;32.25;25.75;;;;;17.60;57.98;102043.69;5102666;27;45247;-88
2021/09/02 08:42:56;;;;;;;;;31.75;27.75;;;;;17.60;58.43;102035.69;5100490;27;45250;-88
2021/09/02 08:45:25;;;;;;;;;32.25;27.75;;;;;17.67;58.25;102036.66;5099597;27;45440;-88
2021/09/02 08:47:52;;;;;;;;;27.25;27.25;;;;;17.75;58.31;102037.59;5100452;27;45346;-87
2021/09/02 08:50:23;;;;;;;;;32.25;26.75;;;;;17.86;58.32;102047.44;5098239;27;45565;-88
2021/09/02 08:52:50;;;;;;;;;27.00;25.25;;;;;17.86;58.42;102013.75;5099351;27;46189;-88
2021/09/02 08:55:16;;;;;;;;;31.50;27.50;;;;;17.99;58.19;102027.16;5101662;27;45374;-88
2021/09/02 08:57:42;;;;;;;;;31.00;27.00;;;;;18.10;58.07;102029.88;5086481;27;45268;-89
2021/09/02 09:00:08;;;;;;;;;33.00;26.75;;;;;18.19;57.57;102039.75;5105736;27;45232;-88
2021/09/02 09:02:38;;;;;;;;;30.75;27.25;;;;;18.26;57.64;102034.47;5106696;27;45275;-88
2021/09/02 09:05:12;;;;;;;;;29.75;26.00;;;;;18.45;57.55;102023.00;5086210;27;45388;-87
2021/09/02 09:07:45;;;;;;;;;30.75;28.75;;;;;18.91;57.12;102053.41;5103242;27;45388;-87
2021/09/02 09:10:15;;;;;;;;;38.00;29.50;;;;;19.23;56.91;102047.31;5102934;27;45207;-88
2021/09/02 09:12:44;;;;;;;;;29.00;27.67;;;;;19.52;56.60;102027.78;5101981;27;45334;-87
2021/09/02 09:15:41;;;;;;;;;36.75;31.50;;;;;19.94;56.11;102026.91;5101647;27;45370;-88
2021/09/02 09:18:21;;;;;;;;;37.00;26.67;;;;;20.43;54.88;102041.03;5101709;27;45379;-88
2021/09/02 09:21:11;;;;;;;;;44.50;30.75;;;;;20.88;54.14;102039.09;5083837;27;45256;-87
2021/09/02 09:23:58;;;;;;;;;29.33;27.67;;;;;21.32;53.71;102033.53;4999252;28;45552;-87
2021/09/02 09:26:26;;;;;;;;;25.67;23.00;;;;;21.68;53.12;102035.94;4983073;28;45408;-88
2021/09/02 09:28:55;;;;;;;;;26.33;21.33;;;;;21.91;53.20;102005.44;5003854;28;45389;-87
2021/09/02 09:31:30;;;;;;;;;25.33;21.00;;;;;22.32;51.99;101998.72;5004039;28;45294;-88
2021/09/02 09:33:58;;;;;;;;;31.00;25.67;;;;;22.68;51.61;102000.09;5003826;28;46077;-88
2021/09/02 09:36:24;;;;;;;;;25.67;20.67;;;;;23.06;50.42;102010.28;5026811;28;45336;-89
2021/09/02 09:39:07;;;;;;;;;29.00;23.33;;;;;23.39;50.29;102009.81;5023099;28;45348;-88
2021/09/02 09:41:38;;;;;;;;;24.00;21.67;;;;;23.70;49.33;102009.31;5022586;28;45349;-88
2021/09/02 09:44:24;;;;;;;;;27.33;20.67;;;;;24.11;49.15;102013.94;5021690;28;46272;-88
2021/09/02 09:47:15;;;;;;;;;18.00;17.67;;;;;24.43;47.83;102009.72;5019482;28;45421;-89
2021/09/02 09:49:56;;;;;;;;;19.33;17.33;;;;;24.71;47.75;102005.56;5019480;28;45415;-88
2021/09/02 09:52:41;;;;;;;;;24.33;20.67;;;;;25.11;47.30;102008.31;5020521;28;45691;-88
2021/09/02 09:55:18;;;;;;;;;23.33;19.00;;;;;25.50;46.67;102008.25;5018810;28;45499;-88
2021/09/02 09:57:46;;;;;;;;;22.67;20.67;;;;;25.93;45.57;101996.41;5019194;28;45380;-88
2021/09/02 10:00:19;;;;;;;;;21.00;19.33;;;;;26.32;44.04;101987.19;5045415;27;45361;-88
2021/09/02 10:02:49;;;;;;;;;24.67;21.33;;;;;26.62;44.22;101998.03;5084450;27;45490;-88
2021/09/02 10:05:16;;;;;;;;;21.67;21.00;;;;;26.99;43.57;102008.63;5084647;27;46554;-88
2021/09/02 10:07:45;;;;;;;;;22.33;19.00;;;;;27.43;43.03;102004.50;5102189;27;45406;-88
2021/09/02 10:10:13;;;;;;;;;20.33;16.00;;;;;27.72;42.36;101994.50;5088350;27;45505;-88
2021/09/02 10:12:43;;;;;;;;;18.33;15.67;;;;;27.91;42.64;102004.69;5106683;27;45240;-88
2021/09/02 10:15:12;;;;;;;;;20.00;15.33;;;;;28.09;41.42;102001.31;5105200;27;46519;-88
2021/09/02 10:17:39;;;;;;;;;19.00;18.33;;;;;28.26;41.75;101978.16;5103328;27;45259;-87
2021/09/02 10:20:15;;;;;;;;;22.33;20.33;;;;;28.85;41.33;102002.06;5084945;27;45351;-88
2021/09/02 10:22:41;;;;;;;;;22.33;18.00;;;;;29.80;39.33;102001.84;5101940;27;45220;-88
2021/09/02 10:25:38;;;;;;;;;20.33;17.33;;;;;30.88;39.07;101967.06;5101595;27;46157;-87
2021/09/02 10:28:17;;;;;;;;;17.67;16.00;;;;;31.97;36.78;101997.75;4998848;28;45382;-88
2021/09/02 10:30:48;;;;;;;;;18.33;17.00;;;;;32.73;36.09;101989.13;5011766;28;45473;-89
2021/09/02 10:33:42;;;;;;;;;18.33;17.00;;;;;33.52;36.03;101997.25;5019797;28;45344;-88
2021/09/02 10:36:11;;;;;;;;;20.33;17.33;;;;;34.12;34.50;101990.94;5020371;28;45358;-88
2021/09/02 10:38:36;;;;;;;;;19.33;16.67;;;;;34.61;32.90;101981.41;5019361;28;45483;-88
2021/09/02 10:41:01;;;;;;;;;22.00;17.00;;;;;35.14;31.92;101981.63;5019418;28;45464;-88
2021/09/02 10:43:50;;;;;;;;;16.00;14.67;;;;;35.76;31.24;101991.03;5020673;28;45422;-88
2021/09/02 10:46:29;;;;;;;;;17.33;17.00;;;;;36.18;30.37;101991.78;4998959;28;46074;-88
2021/09/02 10:48:55;;;;;;;;;20.33;18.67;;;;;36.57;29.72;101992.59;5017223;28;45504;-88
2021/09/02 10:51:37;;;;;;;;;18.33;16.00;;;;;37.01;29.05;101985.75;5018920;28;45436;-89
2021/09/02 10:54:09;;;;;;;;;21.67;19.00;;;;;37.46;28.36;101985.06;5020028;28;45572;-88
2021/09/02 10:57:03;;;;;;;;;19.00;16.00;;;;;37.92;28.10;101995.22;5018508;28;46116;-87
2021/09/02 10:59:57;;;;;;;;;18.33;16.33;;;;;38.37;27.78;101991.63;5018088;28;45323;-88
2021/09/02 11:02:23;;;;;;;;;19.33;17.00;;;;;38.63;26.47;101991.28;4959071;28;45469;-88
2021/09/02 11:04:59;;;;;;;;;18.67;17.33;;;;;38.56;26.33;101981.84;5006636;28;45588;-86
2021/09/02 11:07:37;;;;;;;;;24.00;19.67;;;;;38.14;26.50;101985.25;5040778;28;47385;-88
2021/09/02 11:10:07;;;;;;;;;16.33;14.33;;;;;37.48;25.92;101984.94;5058348;28;45535;-88
2021/09/02 11:12:33;;;;;;;;;17.00;17.00;;;;;36.73;26.74;101975.00;5062551;28;45294;-88